sensor_id;sensor_type;location;lat;lon;timestamp;temperature;humidity
46159;DHT22;31888;44.512;26.104;2023-01-30T00:01:35;0.30;99.90
46159;DHT22;31888;44.512;26.104;2023-01-30T00:04:00;0.30;99.90
46159;DHT22;31888;44.512;26.104;2023-01-30T00:06:25;0.30;99.90
46159;DHT22;31888;44.512;26.104;2023-01-30T00:08:50;0.30;99.90
46159;DHT22;31888;44.512;26.104;2023-01-30T00:11:16;0.20;99.90
46159;DHT22;31888;44.512;26.104;2023-01-30T00:13:42;0.10;99.90
46159;DHT22;31888;44.512;26.104;2023-01-30T00:16:08;0.10;99.90
46159;DHT22;31888;44.512;26.104;2023-01-30T00:18:34;0.20;99.90
46159;DHT22;31888;44.512;26.104;2023-01-30T00:21:00;0.10;99.90
46159;DHT22;31888;44.512;26.104;2023-01-30T00:23:26;0.10;99.90
46159;DHT22;31888;44.512;26.104;2023-01-30T00:25:51;0.20;99.90
46159;DHT22;31888;44.512;26.104;2023-01-30T00:28:16;0.20;99.90
46159;DHT22;31888;44.512;26.104;2023-01-30T00:30:41;0.20;99.90
46159;DHT22;31888;44.512;26.104;2023-01-30T00:33:05;0.10;99.90
46159;DHT22;31888;44.512;26.104;2023-01-30T00:35:31;0.00;99.90
46159;DHT22;31888;44.512;26.104;2023-01-30T00:37:57;0.10;99.90
46159;DHT22;31888;44.512;26.104;2023-01-30T00:40:22;0.20;99.90
46159;DHT22;31888;44.512;26.104;2023-01-30T00:42:48;0.20;99.90
46159;DHT22;31888;44.512;26.104;2023-01-30T00:45:30;0.20;99.90
46159;DHT22;31888;44.512;26.104;2023-01-30T00:48:12;0.30;99.90
46159;DHT22;31888;44.512;26.104;2023-01-30T00:50:38;0.40;99.90
46159;DHT22;31888;44.512;26.104;2023-01-30T00:53:09;0.40;99.90
46159;DHT22;31888;44.512;26.104;2023-01-30T00:55:34;0.40;99.90
46159;DHT22;31888;44.512;26.104;2023-01-30T00:57:59;0.50;99.90
46159;DHT22;31888;44.512;26.104;2023-01-30T01:00:23;0.50;99.90
46159;DHT22;31888;44.512;26.104;2023-01-30T01:02:48;0.60;99.90
46159;DHT22;31888;44.512;26.104;2023-01-30T01:05:13;0.70;99.90
46159;DHT22;31888;44.512;26.104;2023-01-30T01:07:40;0.60;99.90
46159;DHT22;31888;44.512;26.104;2023-01-30T01:10:06;0.50;99.90
46159;DHT22;31888;44.512;26.104;2023-01-30T01:12:30;0.50;99.90
46159;DHT22;31888;44.512;26.104;2023-01-30T01:14:55;0.60;99.90
46159;DHT22;31888;44.512;26.104;2023-01-30T01:17:20;0.50;99.90
46159;DHT22;31888;44.512;26.104;2023-01-30T01:19:45;0.60;99.90
46159;DHT22;31888;44.512;26.104;2023-01-30T01:22:09;0.60;99.90
46159;DHT22;31888;44.512;26.104;2023-01-30T01:24:35;0.60;99.90
46159;DHT22;31888;44.512;26.104;2023-01-30T01:27:00;0.70;99.90
46159;DHT22;31888;44.512;26.104;2023-01-30T01:29:27;0.70;99.90
46159;DHT22;31888;44.512;26.104;2023-01-30T01:31:53;0.80;99.90
46159;DHT22;31888;44.512;26.104;2023-01-30T01:34:17;0.90;99.90
46159;DHT22;31888;44.512;26.104;2023-01-30T01:36:42;0.80;99.90
46159;DHT22;31888;44.512;26.104;2023-01-30T01:39:16;0.90;99.90
46159;DHT22;31888;44.512;26.104;2023-01-30T01:41:42;0.80;99.90
46159;DHT22;31888;44.512;26.104;2023-01-30T01:44:07;0.90;99.90
46159;DHT22;31888;44.512;26.104;2023-01-30T01:46:35;1.00;99.90
46159;DHT22;31888;44.512;26.104;2023-01-30T01:49:05;1.00;99.90
46159;DHT22;31888;44.512;26.104;2023-01-30T01:51:33;0.80;99.90
46159;DHT22;31888;44.512;26.104;2023-01-30T01:54:02;0.60;99.90
46159;DHT22;31888;44.512;26.104;2023-01-30T01:56:30;0.60;99.90
46159;DHT22;31888;44.512;26.104;2023-01-30T01:59:02;0.70;99.90
46159;DHT22;31888;44.512;26.104;2023-01-30T02:01:29;0.80;99.90
46159;DHT22;31888;44.512;26.104;2023-01-30T02:03:57;0.80;99.90
46159;DHT22;31888;44.512;26.104;2023-01-30T02:06:24;0.70;99.90
46159;DHT22;31888;44.512;26.104;2023-01-30T02:08:51;0.70;99.90
46159;DHT22;31888;44.512;26.104;2023-01-30T02:11:22;0.80;99.90
46159;DHT22;31888;44.512;26.104;2023-01-30T02:13:50;0.80;99.90
46159;DHT22;31888;44.512;26.104;2023-01-30T02:16:18;0.90;99.90
46159;DHT22;31888;44.512;26.104;2023-01-30T02:18:43;0.90;99.90
46159;DHT22;31888;44.512;26.104;2023-01-30T02:21:34;1.00;99.90
46159;DHT22;31888;44.512;26.104;2023-01-30T02:24:29;1.10;99.90
46159;DHT22;31888;44.512;26.104;2023-01-30T02:27:12;1.00;99.90
46159;DHT22;31888;44.512;26.104;2023-01-30T02:30:04;1.00;99.90
46159;DHT22;31888;44.512;26.104;2023-01-30T02:32:37;1.00;99.90
46159;DHT22;31888;44.512;26.104;2023-01-30T02:35:09;1.00;99.90
46159;DHT22;31888;44.512;26.104;2023-01-30T02:37:48;1.10;99.90
46159;DHT22;31888;44.512;26.104;2023-01-30T02:40:29;1.10;99.90
46159;DHT22;31888;44.512;26.104;2023-01-30T02:43:03;1.00;99.90
46159;DHT22;31888;44.512;26.104;2023-01-30T02:45:33;1.10;99.90
46159;DHT22;31888;44.512;26.104;2023-01-30T02:48:02;1.00;99.90
46159;DHT22;31888;44.512;26.104;2023-01-30T02:50:31;0.90;99.90
46159;DHT22;31888;44.512;26.104;2023-01-30T02:52:57;0.90;99.90
46159;DHT22;31888;44.512;26.104;2023-01-30T02:55:24;0.90;99.90
46159;DHT22;31888;44.512;26.104;2023-01-30T02:57:49;0.90;99.90
46159;DHT22;31888;44.512;26.104;2023-01-30T03:00:18;0.70;99.90
46159;DHT22;31888;44.512;26.104;2023-01-30T03:06:02;0.70;99.90
46159;DHT22;31888;44.512;26.104;2023-01-30T03:08:33;0.70;99.90
46159;DHT22;31888;44.512;26.104;2023-01-30T03:11:05;0.60;99.90
46159;DHT22;31888;44.512;26.104;2023-01-30T03:13:41;0.50;99.90
46159;DHT22;31888;44.512;26.104;2023-01-30T03:16:12;0.40;99.90
46159;DHT22;31888;44.512;26.104;2023-01-30T03:18:40;0.40;99.90
46159;DHT22;31888;44.512;26.104;2023-01-30T03:21:06;0.40;99.90
46159;DHT22;31888;44.512;26.104;2023-01-30T03:23:31;0.40;99.90
46159;DHT22;31888;44.512;26.104;2023-01-30T03:25:58;0.40;99.90
46159;DHT22;31888;44.512;26.104;2023-01-30T03:28:23;0.30;99.90
46159;DHT22;31888;44.512;26.104;2023-01-30T03:30:48;0.30;99.90
46159;DHT22;31888;44.512;26.104;2023-01-30T03:33:13;0.30;99.90
46159;DHT22;31888;44.512;26.104;2023-01-30T03:35:42;0.30;99.90
46159;DHT22;31888;44.512;26.104;2023-01-30T03:38:10;0.30;99.90
46159;DHT22;31888;44.512;26.104;2023-01-30T03:40:35;0.40;99.90
46159;DHT22;31888;44.512;26.104;2023-01-30T03:43:00;0.40;99.90
46159;DHT22;31888;44.512;26.104;2023-01-30T03:45:25;0.40;99.90
46159;DHT22;31888;44.512;26.104;2023-01-30T03:47:50;0.40;99.90
46159;DHT22;31888;44.512;26.104;2023-01-30T03:50:15;0.40;99.90
46159;DHT22;31888;44.512;26.104;2023-01-30T03:52:40;0.50;99.90
46159;DHT22;31888;44.512;26.104;2023-01-30T03:55:11;0.50;99.90
46159;DHT22;31888;44.512;26.104;2023-01-30T03:57:35;0.60;99.90
46159;DHT22;31888;44.512;26.104;2023-01-30T04:00:00;0.60;99.90
46159;DHT22;31888;44.512;26.104;2023-01-30T04:02:27;0.50;99.90
46159;DHT22;31888;44.512;26.104;2023-01-30T04:04:54;0.60;99.90
46159;DHT22;31888;44.512;26.104;2023-01-30T04:07:18;0.50;99.90
46159;DHT22;31888;44.512;26.104;2023-01-30T04:09:45;0.60;99.90
46159;DHT22;31888;44.512;26.104;2023-01-30T04:12:13;0.50;99.90
46159;DHT22;31888;44.512;26.104;2023-01-30T04:14:46;0.60;99.90
46159;DHT22;31888;44.512;26.104;2023-01-30T04:17:35;0.50;99.90
46159;DHT22;31888;44.512;26.104;2023-01-30T04:20:18;0.40;99.90
46159;DHT22;31888;44.512;26.104;2023-01-30T04:22:47;0.40;99.90
46159;DHT22;31888;44.512;26.104;2023-01-30T04:25:12;0.50;99.90
46159;DHT22;31888;44.512;26.104;2023-01-30T04:27:39;0.50;99.90
46159;DHT22;31888;44.512;26.104;2023-01-30T04:30:10;0.50;99.90
46159;DHT22;31888;44.512;26.104;2023-01-30T04:32:36;0.40;99.90
46159;DHT22;31888;44.512;26.104;2023-01-30T04:35:01;0.50;99.90
46159;DHT22;31888;44.512;26.104;2023-01-30T04:37:26;0.50;99.90
46159;DHT22;31888;44.512;26.104;2023-01-30T04:39:51;0.50;99.90
46159;DHT22;31888;44.512;26.104;2023-01-30T04:42:16;0.50;99.90
46159;DHT22;31888;44.512;26.104;2023-01-30T04:45:01;0.60;99.90
46159;DHT22;31888;44.512;26.104;2023-01-30T04:47:26;0.70;99.90
46159;DHT22;31888;44.512;26.104;2023-01-30T04:49:51;0.70;99.90
46159;DHT22;31888;44.512;26.104;2023-01-30T04:52:16;0.70;99.90
46159;DHT22;31888;44.512;26.104;2023-01-30T04:54:40;0.80;99.90
46159;DHT22;31888;44.512;26.104;2023-01-30T04:57:05;0.70;99.90
46159;DHT22;31888;44.512;26.104;2023-01-30T04:59:31;0.70;99.90
46159;DHT22;31888;44.512;26.104;2023-01-30T05:02:01;0.70;99.90
46159;DHT22;31888;44.512;26.104;2023-01-30T05:04:25;0.70;99.90
46159;DHT22;31888;44.512;26.104;2023-01-30T05:06:50;0.70;99.90
46159;DHT22;31888;44.512;26.104;2023-01-30T05:09:15;0.70;99.90
46159;DHT22;31888;44.512;26.104;2023-01-30T05:11:40;0.80;99.90
46159;DHT22;31888;44.512;26.104;2023-01-30T05:14:04;0.80;99.90
46159;DHT22;31888;44.512;26.104;2023-01-30T05:16:29;0.90;99.90
46159;DHT22;31888;44.512;26.104;2023-01-30T05:18:55;1.00;99.90
46159;DHT22;31888;44.512;26.104;2023-01-30T05:21:21;1.10;99.90
46159;DHT22;31888;44.512;26.104;2023-01-30T05:23:48;1.20;99.90
46159;DHT22;31888;44.512;26.104;2023-01-30T05:26:13;1.30;99.90
46159;DHT22;31888;44.512;26.104;2023-01-30T05:28:38;1.30;99.90
46159;DHT22;31888;44.512;26.104;2023-01-30T05:31:05;1.40;99.90
46159;DHT22;31888;44.512;26.104;2023-01-30T05:33:30;1.30;99.90
46159;DHT22;31888;44.512;26.104;2023-01-30T05:35:56;1.10;99.90
46159;DHT22;31888;44.512;26.104;2023-01-30T05:38:21;1.10;99.90
46159;DHT22;31888;44.512;26.104;2023-01-30T05:40:46;1.00;99.90
46159;DHT22;31888;44.512;26.104;2023-01-30T05:43:11;1.00;99.90
46159;DHT22;31888;44.512;26.104;2023-01-30T05:45:35;1.00;99.90
46159;DHT22;31888;44.512;26.104;2023-01-30T05:48:00;0.80;99.90
46159;DHT22;31888;44.512;26.104;2023-01-30T05:50:25;0.70;99.90
46159;DHT22;31888;44.512;26.104;2023-01-30T05:52:51;0.50;99.90
46159;DHT22;31888;44.512;26.104;2023-01-30T05:55:16;0.50;99.90
46159;DHT22;31888;44.512;26.104;2023-01-30T05:57:41;0.50;99.90
46159;DHT22;31888;44.512;26.104;2023-01-30T06:00:07;0.50;99.90
46159;DHT22;31888;44.512;26.104;2023-01-30T06:02:35;0.60;99.90
46159;DHT22;31888;44.512;26.104;2023-01-30T06:05:00;0.60;99.90
46159;DHT22;31888;44.512;26.104;2023-01-30T06:07:25;0.60;99.90
46159;DHT22;31888;44.512;26.104;2023-01-30T06:09:51;0.70;99.90
46159;DHT22;31888;44.512;26.104;2023-01-30T06:12:16;0.60;99.90
46159;DHT22;31888;44.512;26.104;2023-01-30T06:14:40;0.60;99.90
46159;DHT22;31888;44.512;26.104;2023-01-30T06:17:05;0.70;99.90
46159;DHT22;31888;44.512;26.104;2023-01-30T06:19:30;0.60;99.90
46159;DHT22;31888;44.512;26.104;2023-01-30T06:21:54;0.80;99.90
46159;DHT22;31888;44.512;26.104;2023-01-30T06:24:19;0.70;99.90
46159;DHT22;31888;44.512;26.104;2023-01-30T06:26:45;0.70;99.90
46159;DHT22;31888;44.512;26.104;2023-01-30T06:29:09;0.70;99.90
46159;DHT22;31888;44.512;26.104;2023-01-30T06:31:34;0.70;99.90
46159;DHT22;31888;44.512;26.104;2023-01-30T06:33:59;0.80;99.90
46159;DHT22;31888;44.512;26.104;2023-01-30T06:36:24;0.90;99.90
46159;DHT22;31888;44.512;26.104;2023-01-30T06:38:48;1.00;99.90
46159;DHT22;31888;44.512;26.104;2023-01-30T06:41:13;1.10;99.90
46159;DHT22;31888;44.512;26.104;2023-01-30T06:43:40;1.10;99.90
46159;DHT22;31888;44.512;26.104;2023-01-30T06:46:05;1.20;99.90
46159;DHT22;31888;44.512;26.104;2023-01-30T06:48:30;1.20;99.90
46159;DHT22;31888;44.512;26.104;2023-01-30T06:50:54;1.40;99.90
46159;DHT22;31888;44.512;26.104;2023-01-30T06:53:19;1.40;99.90
46159;DHT22;31888;44.512;26.104;2023-01-30T06:55:44;1.40;99.90
46159;DHT22;31888;44.512;26.104;2023-01-30T06:58:10;1.50;99.90
46159;DHT22;31888;44.512;26.104;2023-01-30T07:00:38;1.50;99.90
46159;DHT22;31888;44.512;26.104;2023-01-30T07:03:03;1.60;99.90
46159;DHT22;31888;44.512;26.104;2023-01-30T07:05:27;1.80;99.90
46159;DHT22;31888;44.512;26.104;2023-01-30T07:07:52;2.00;99.90
46159;DHT22;31888;44.512;26.104;2023-01-30T07:10:17;2.00;99.90
46159;DHT22;31888;44.512;26.104;2023-01-30T07:12:43;2.10;99.90
46159;DHT22;31888;44.512;26.104;2023-01-30T07:15:08;2.30;99.90
46159;DHT22;31888;44.512;26.104;2023-01-30T07:17:35;2.30;99.90
46159;DHT22;31888;44.512;26.104;2023-01-30T07:19:59;2.40;99.90
46159;DHT22;31888;44.512;26.104;2023-01-30T07:22:24;2.50;99.90
46159;DHT22;31888;44.512;26.104;2023-01-30T07:24:49;2.40;99.90
46159;DHT22;31888;44.512;26.104;2023-01-30T07:27:14;2.60;99.90
46159;DHT22;31888;44.512;26.104;2023-01-30T07:29:39;2.70;99.90
46159;DHT22;31888;44.512;26.104;2023-01-30T07:32:05;3.20;99.90
46159;DHT22;31888;44.512;26.104;2023-01-30T07:34:31;3.60;99.90
46159;DHT22;31888;44.512;26.104;2023-01-30T07:36:56;4.00;99.90
46159;DHT22;31888;44.512;26.104;2023-01-30T07:39:21;4.30;99.90
46159;DHT22;31888;44.512;26.104;2023-01-30T07:41:45;4.70;99.90
46159;DHT22;31888;44.512;26.104;2023-01-30T07:44:11;5.10;99.90
46159;DHT22;31888;44.512;26.104;2023-01-30T07:46:36;5.70;99.90
46159;DHT22;31888;44.512;26.104;2023-01-30T07:49:01;6.20;99.90
46159;DHT22;31888;44.512;26.104;2023-01-30T07:51:28;6.60;99.90
46159;DHT22;31888;44.512;26.104;2023-01-30T07:53:53;6.90;99.10
46159;DHT22;31888;44.512;26.104;2023-01-30T07:56:18;7.20;98.00
46159;DHT22;31888;44.512;26.104;2023-01-30T07:58:43;7.30;97.30
46159;DHT22;31888;44.512;26.104;2023-01-30T08:01:07;7.50;97.00
46159;DHT22;31888;44.512;26.104;2023-01-30T08:03:32;7.70;96.30
46159;DHT22;31888;44.512;26.104;2023-01-30T08:05:57;8.00;96.40
46159;DHT22;31888;44.512;26.104;2023-01-30T08:08:24;8.30;95.90
46159;DHT22;31888;44.512;26.104;2023-01-30T08:10:48;8.60;94.40
46159;DHT22;31888;44.512;26.104;2023-01-30T08:13:13;8.40;94.30
46159;DHT22;31888;44.512;26.104;2023-01-30T08:15:38;7.80;95.50
46159;DHT22;31888;44.512;26.104;2023-01-30T08:18:03;7.90;95.60
46159;DHT22;31888;44.512;26.104;2023-01-30T08:20:29;8.00;94.60
46159;DHT22;31888;44.512;26.104;2023-01-30T08:22:54;7.90;94.90
46159;DHT22;31888;44.512;26.104;2023-01-30T08:25:21;8.10;94.40
46159;DHT22;31888;44.512;26.104;2023-01-30T08:27:45;8.40;93.60
46159;DHT22;31888;44.512;26.104;2023-01-30T08:30:11;8.50;92.50
46159;DHT22;31888;44.512;26.104;2023-01-30T08:32:36;7.90;93.70
46159;DHT22;31888;44.512;26.104;2023-01-30T08:35:00;7.50;93.50
46159;DHT22;31888;44.512;26.104;2023-01-30T08:37:25;7.10;93.60
46159;DHT22;31888;44.512;26.104;2023-01-30T08:39:50;7.20;95.40
46159;DHT22;31888;44.512;26.104;2023-01-30T08:42:16;7.40;93.00
46159;DHT22;31888;44.512;26.104;2023-01-30T08:44:41;7.30;93.30
46159;DHT22;31888;44.512;26.104;2023-01-30T08:47:05;7.50;93.40
46159;DHT22;31888;44.512;26.104;2023-01-30T08:49:30;7.10;94.80
46159;DHT22;31888;44.512;26.104;2023-01-30T08:51:55;7.10;94.20
46159;DHT22;31888;44.512;26.104;2023-01-30T08:54:20;7.40;93.80
46159;DHT22;31888;44.512;26.104;2023-01-30T08:56:44;7.80;93.60
46159;DHT22;31888;44.512;26.104;2023-01-30T08:59:11;8.10;92.20
46159;DHT22;31888;44.512;26.104;2023-01-30T09:01:36;8.00;92.40
46159;DHT22;31888;44.512;26.104;2023-01-30T09:04:01;8.10;92.00
46159;DHT22;31888;44.512;26.104;2023-01-30T09:06:26;7.70;92.30
46159;DHT22;31888;44.512;26.104;2023-01-30T09:08:51;7.40;93.10
46159;DHT22;31888;44.512;26.104;2023-01-30T09:11:16;7.20;93.00
46159;DHT22;31888;44.512;26.104;2023-01-30T09:13:40;7.30;92.70
46159;DHT22;31888;44.512;26.104;2023-01-30T09:16:08;7.50;94.30
46159;DHT22;31888;44.512;26.104;2023-01-30T09:18:33;7.80;93.70
46159;DHT22;31888;44.512;26.104;2023-01-30T09:21:02;7.90;94.10
46159;DHT22;31888;44.512;26.104;2023-01-30T09:23:27;8.00;94.00
46159;DHT22;31888;44.512;26.104;2023-01-30T09:25:51;8.00;92.50
46159;DHT22;31888;44.512;26.104;2023-01-30T09:28:16;7.90;93.70
46159;DHT22;31888;44.512;26.104;2023-01-30T09:30:40;7.80;92.50
46159;DHT22;31888;44.512;26.104;2023-01-30T09:33:07;8.00;92.60
46159;DHT22;31888;44.512;26.104;2023-01-30T09:35:31;7.90;91.00
46159;DHT22;31888;44.512;26.104;2023-01-30T09:37:56;7.60;92.50
46159;DHT22;31888;44.512;26.104;2023-01-30T09:40:25;7.50;92.00
46159;DHT22;31888;44.512;26.104;2023-01-30T09:43:03;7.40;92.80
46159;DHT22;31888;44.512;26.104;2023-01-30T09:48:23;7.60;92.90
46159;DHT22;31888;44.512;26.104;2023-01-30T09:51:13;7.70;92.80
46159;DHT22;31888;44.512;26.104;2023-01-30T09:54:01;7.80;93.10
46159;DHT22;31888;44.512;26.104;2023-01-30T09:56:28;8.00;91.30
46159;DHT22;31888;44.512;26.104;2023-01-30T09:58:55;7.70;93.30
46159;DHT22;31888;44.512;26.104;2023-01-30T10:01:24;8.00;92.20
46159;DHT22;31888;44.512;26.104;2023-01-30T10:04:03;7.80;92.60
46159;DHT22;31888;44.512;26.104;2023-01-30T10:06:30;8.00;93.90
46159;DHT22;31888;44.512;26.104;2023-01-30T10:09:02;8.40;92.20
46159;DHT22;31888;44.512;26.104;2023-01-30T10:11:42;8.50;92.40
46159;DHT22;31888;44.512;26.104;2023-01-30T10:17:22;8.50;91.70
46159;DHT22;31888;44.512;26.104;2023-01-30T10:20:11;8.10;92.50
46159;DHT22;31888;44.512;26.104;2023-01-30T10:22:47;8.10;92.30
46159;DHT22;31888;44.512;26.104;2023-01-30T10:25:21;8.00;92.20
46159;DHT22;31888;44.512;26.104;2023-01-30T10:27:52;8.30;91.80
46159;DHT22;31888;44.512;26.104;2023-01-30T10:30:18;8.10;91.80
46159;DHT22;31888;44.512;26.104;2023-01-30T10:32:49;8.00;93.10
46159;DHT22;31888;44.512;26.104;2023-01-30T10:35:21;8.10;93.10
46159;DHT22;31888;44.512;26.104;2023-01-30T10:37:55;8.10;92.30
46159;DHT22;31888;44.512;26.104;2023-01-30T10:40:26;8.00;92.50
46159;DHT22;31888;44.512;26.104;2023-01-30T10:42:54;8.30;91.80
46159;DHT22;31888;44.512;26.104;2023-01-30T10:45:27;8.20;92.30
46159;DHT22;31888;44.512;26.104;2023-01-30T10:47:59;8.30;92.00
46159;DHT22;31888;44.512;26.104;2023-01-30T10:50:33;8.10;91.90
46159;DHT22;31888;44.512;26.104;2023-01-30T10:53:06;8.00;91.90
46159;DHT22;31888;44.512;26.104;2023-01-30T10:55:40;8.10;92.50
46159;DHT22;31888;44.512;26.104;2023-01-30T10:58:13;7.90;92.40
46159;DHT22;31888;44.512;26.104;2023-01-30T11:00:41;7.80;92.50
46159;DHT22;31888;44.512;26.104;2023-01-30T11:03:20;7.60;92.90
46159;DHT22;31888;44.512;26.104;2023-01-30T11:05:49;7.50;93.10
46159;DHT22;31888;44.512;26.104;2023-01-30T11:08:22;7.30;93.40
46159;DHT22;31888;44.512;26.104;2023-01-30T11:10:47;7.00;93.50
46159;DHT22;31888;44.512;26.104;2023-01-30T11:13:15;6.90;93.50
46159;DHT22;31888;44.512;26.104;2023-01-30T11:15:41;6.50;94.50
46159;DHT22;31888;44.512;26.104;2023-01-30T11:18:07;6.40;94.90
46159;DHT22;31888;44.512;26.104;2023-01-30T11:21:03;6.50;95.10
46159;DHT22;31888;44.512;26.104;2023-01-30T11:23:32;6.30;94.90
46159;DHT22;31888;44.512;26.104;2023-01-30T11:25:57;6.20;95.40
46159;DHT22;31888;44.512;26.104;2023-01-30T11:28:35;5.90;95.50
46159;DHT22;31888;44.512;26.104;2023-01-30T11:31:03;5.90;96.40
46159;DHT22;31888;44.512;26.104;2023-01-30T11:33:32;5.90;96.50
46159;DHT22;31888;44.512;26.104;2023-01-30T11:36:01;5.90;96.30
46159;DHT22;31888;44.512;26.104;2023-01-30T11:38:28;5.90;96.50
46159;DHT22;31888;44.512;26.104;2023-01-30T11:41:05;5.80;95.90
46159;DHT22;31888;44.512;26.104;2023-01-30T11:43:32;5.70;96.10
46159;DHT22;31888;44.512;26.104;2023-01-30T11:45:57;5.60;96.60
46159;DHT22;31888;44.512;26.104;2023-01-30T11:48:27;5.50;97.70
46159;DHT22;31888;44.512;26.104;2023-01-30T11:51:16;5.50;97.30
46159;DHT22;31888;44.512;26.104;2023-01-30T11:53:43;5.40;97.40
46159;DHT22;31888;44.512;26.104;2023-01-30T11:56:14;5.20;97.20
46159;DHT22;31888;44.512;26.104;2023-01-30T11:58:41;5.10;97.40
46159;DHT22;31888;44.512;26.104;2023-01-30T12:01:09;4.80;98.10
46159;DHT22;31888;44.512;26.104;2023-01-30T12:03:42;4.90;98.10
46159;DHT22;31888;44.512;26.104;2023-01-30T12:06:07;5.00;98.40
46159;DHT22;31888;44.512;26.104;2023-01-30T12:08:36;4.90;98.40
46159;DHT22;31888;44.512;26.104;2023-01-30T12:11:25;5.00;98.60
46159;DHT22;31888;44.512;26.104;2023-01-30T12:13:51;5.00;98.70
46159;DHT22;31888;44.512;26.104;2023-01-30T12:16:19;5.20;98.50
46159;DHT22;31888;44.512;26.104;2023-01-30T12:18:53;5.20;98.40
46159;DHT22;31888;44.512;26.104;2023-01-30T12:21:31;5.20;98.50
46159;DHT22;31888;44.512;26.104;2023-01-30T12:24:08;5.40;98.10
46159;DHT22;31888;44.512;26.104;2023-01-30T12:26:39;5.00;98.10
46159;DHT22;31888;44.512;26.104;2023-01-30T12:29:20;4.70;99.20
46159;DHT22;31888;44.512;26.104;2023-01-30T12:31:47;4.70;99.30
46159;DHT22;31888;44.512;26.104;2023-01-30T12:34:13;4.70;99.60
46159;DHT22;31888;44.512;26.104;2023-01-30T12:36:44;4.70;99.80
46159;DHT22;31888;44.512;26.104;2023-01-30T12:39:27;4.60;99.70
46159;DHT22;31888;44.512;26.104;2023-01-30T12:42:21;4.60;99.70
46159;DHT22;31888;44.512;26.104;2023-01-30T12:45:02;4.50;99.70
46159;DHT22;31888;44.512;26.104;2023-01-30T12:47:59;4.50;99.90
46159;DHT22;31888;44.512;26.104;2023-01-30T12:50:35;4.60;99.90
46159;DHT22;31888;44.512;26.104;2023-01-30T12:53:18;4.50;99.90
46159;DHT22;31888;44.512;26.104;2023-01-30T12:55:53;4.40;99.90
46159;DHT22;31888;44.512;26.104;2023-01-30T12:58:26;4.20;99.90
46159;DHT22;31888;44.512;26.104;2023-01-30T13:01:05;4.30;99.90
46159;DHT22;31888;44.512;26.104;2023-01-30T13:03:39;4.20;99.90
46159;DHT22;31888;44.512;26.104;2023-01-30T13:06:12;4.30;99.90
46159;DHT22;31888;44.512;26.104;2023-01-30T13:08:50;4.40;99.90
46159;DHT22;31888;44.512;26.104;2023-01-30T13:14:12;4.60;99.90
46159;DHT22;31888;44.512;26.104;2023-01-30T13:16:50;4.70;99.90
46159;DHT22;31888;44.512;26.104;2023-01-30T13:19:24;4.70;99.90
46159;DHT22;31888;44.512;26.104;2023-01-30T13:22:05;5.90;99.90
46159;DHT22;31888;44.512;26.104;2023-01-30T13:24:47;6.90;99.90
46159;DHT22;31888;44.512;26.104;2023-01-30T13:27:18;6.80;98.90
46159;DHT22;31888;44.512;26.104;2023-01-30T13:29:44;6.60;97.70
46159;DHT22;31888;44.512;26.104;2023-01-30T13:32:15;6.20;98.00
46159;DHT22;31888;44.512;26.104;2023-01-30T13:34:43;5.70;99.20
46159;DHT22;31888;44.512;26.104;2023-01-30T13:37:11;5.20;99.90
46159;DHT22;31888;44.512;26.104;2023-01-30T13:39:39;4.80;99.90
46159;DHT22;31888;44.512;26.104;2023-01-30T13:42:12;4.50;99.90
46159;DHT22;31888;44.512;26.104;2023-01-30T13:44:42;4.40;99.90
46159;DHT22;31888;44.512;26.104;2023-01-30T13:47:17;4.30;99.90
46159;DHT22;31888;44.512;26.104;2023-01-30T13:49:49;4.40;99.90
46159;DHT22;31888;44.512;26.104;2023-01-30T13:52:22;4.40;99.90
46159;DHT22;31888;44.512;26.104;2023-01-30T13:54:55;4.40;99.90
46159;DHT22;31888;44.512;26.104;2023-01-30T13:57:33;4.30;99.90
46159;DHT22;31888;44.512;26.104;2023-01-30T14:00:24;4.30;99.90
46159;DHT22;31888;44.512;26.104;2023-01-30T14:03:25;4.00;99.90
46159;DHT22;31888;44.512;26.104;2023-01-30T14:06:13;4.10;99.90
46159;DHT22;31888;44.512;26.104;2023-01-30T14:08:51;4.00;99.90
46159;DHT22;31888;44.512;26.104;2023-01-30T14:11:32;3.90;99.90
46159;DHT22;31888;44.512;26.104;2023-01-30T14:14:02;3.90;99.90
46159;DHT22;31888;44.512;26.104;2023-01-30T14:16:41;3.80;99.90
46159;DHT22;31888;44.512;26.104;2023-01-30T14:19:34;3.70;99.90
46159;DHT22;31888;44.512;26.104;2023-01-30T14:22:03;3.70;99.90
46159;DHT22;31888;44.512;26.104;2023-01-30T14:24:28;3.70;99.90
46159;DHT22;31888;44.512;26.104;2023-01-30T14:27:00;3.70;99.90
46159;DHT22;31888;44.512;26.104;2023-01-30T14:29:53;3.60;99.90
46159;DHT22;31888;44.512;26.104;2023-01-30T14:32:51;3.60;99.90
46159;DHT22;31888;44.512;26.104;2023-01-30T14:35:24;3.70;99.90
46159;DHT22;31888;44.512;26.104;2023-01-30T14:38:16;3.60;99.90
46159;DHT22;31888;44.512;26.104;2023-01-30T14:40:46;3.50;99.90
46159;DHT22;31888;44.512;26.104;2023-01-30T14:46:01;3.30;99.90
46159;DHT22;31888;44.512;26.104;2023-01-30T14:48:32;3.00;99.90
46159;DHT22;31888;44.512;26.104;2023-01-30T14:51:20;3.00;99.90
46159;DHT22;31888;44.512;26.104;2023-01-30T14:53:50;2.90;99.90
46159;DHT22;31888;44.512;26.104;2023-01-30T14:56:15;2.80;99.90
46159;DHT22;31888;44.512;26.104;2023-01-30T14:58:50;2.60;99.90
46159;DHT22;31888;44.512;26.104;2023-01-30T15:01:15;2.50;99.90
46159;DHT22;31888;44.512;26.104;2023-01-30T15:03:45;2.40;99.90
46159;DHT22;31888;44.512;26.104;2023-01-30T15:06:11;2.20;99.90
46159;DHT22;31888;44.512;26.104;2023-01-30T15:08:40;2.10;99.90
46159;DHT22;31888;44.512;26.104;2023-01-30T15:11:09;2.00;99.90
46159;DHT22;31888;44.512;26.104;2023-01-30T15:13:57;1.90;99.90
46159;DHT22;31888;44.512;26.104;2023-01-30T15:16:43;1.70;99.90
46159;DHT22;31888;44.512;26.104;2023-01-30T15:19:30;1.60;99.90
46159;DHT22;31888;44.512;26.104;2023-01-30T15:22:06;1.60;99.90
46159;DHT22;31888;44.512;26.104;2023-01-30T15:27:35;1.60;99.90
46159;DHT22;31888;44.512;26.104;2023-01-30T15:30:18;1.60;99.90
46159;DHT22;31888;44.512;26.104;2023-01-30T15:32:45;1.60;99.90
46159;DHT22;31888;44.512;26.104;2023-01-30T15:35:22;1.50;99.90
46159;DHT22;31888;44.512;26.104;2023-01-30T15:37:52;1.50;99.90
46159;DHT22;31888;44.512;26.104;2023-01-30T15:40:22;1.40;99.90
46159;DHT22;31888;44.512;26.104;2023-01-30T15:42:49;1.40;99.90
46159;DHT22;31888;44.512;26.104;2023-01-30T15:45:20;1.40;99.90
46159;DHT22;31888;44.512;26.104;2023-01-30T15:48:12;1.40;99.90
46159;DHT22;31888;44.512;26.104;2023-01-30T15:50:46;1.40;99.90
46159;DHT22;31888;44.512;26.104;2023-01-30T15:53:13;1.40;99.90
46159;DHT22;31888;44.512;26.104;2023-01-30T15:55:40;1.30;99.90
46159;DHT22;31888;44.512;26.104;2023-01-30T15:58:08;1.40;99.90
46159;DHT22;31888;44.512;26.104;2023-01-30T16:00:36;1.50;99.90
46159;DHT22;31888;44.512;26.104;2023-01-30T16:03:04;1.50;99.90